LEXJ/SDR METAR and TAF weather

Enter ICAO airport designator
Station Type Date Time Source
LEXJ METAR 2018/12/12 07:30 UTC NOAA

LEXJ 120730Z 21005KT 9999 SCT024 BKN038 OVC060 11/11 Q1022


Station Type Date Time Source
LEXJ Decoded METAR 2018/12/12 07:30 UTC NOAA

Santander / Parayas, Spain (LEXJ) 43-26N 003-49W 9M
Dec 12, 2018 - 02:30 AM EST / 2018.12.12 0730 UTC
Wind: from the SSW (210 degrees) at 6 MPH (5 KT):0
Visibility: greater than 7 mile(s):0
Sky conditions: overcast
Temperature: 51 F (11 C)
Dew Point: 51 F (11 C)
Relative Humidity: 100%
Pressure (altimeter): 30.18 in. Hg (1022 hPa)
ob: LEXJ 120730Z 21005KT 9999 SCT024 BKN038 OVC060 11/11 Q1022
cycle: 7

Station Type Date Time Source
LEXJ TAF 2018/12/12 03:27 UTC NOAA

TAF LEXJ 120200Z 1203/1303 27009KT 9999 SCT018 SCT030 TX14/1214Z TN11/1206Z PROB40
TEMPO 1203/1207 3000 RADZ BKN010
TEMPO 1215/1218 09010KT
BECMG 1218/1221 18010KT
TEMPO 1221/1303 20015G30KT


Example: see airport list